Kezdőlap
METAR-TAF:

METAR-TAF

Repülőterek :

Newton Municipal Airport

Newton, Iowa, Amerikai Egyesült Államok

földrajzi szélesség: 41-41N, földrajzi hosszúság: 093-01W, magasság: 290 m

Jelenlegi meteorológiai megfigyelések

A jelentés 24 perccel ezelõtt készült, 16:35 UTC
Keleti szél 9 kt széllökések: 15 kt, északkeleti és kelet-délkeleti között változik
Hőmérséklet 13°C
Páratartalom 38%
Légköri nyomás 1028 hPa
Látótávolság: 16.1 km
Derült ég

METAR: KTNU 111635Z AUTO 08009G15KT 050V120 10SM CLR 13/M01 A3036 RMK A01

Idő: 11:59 (16:59 UTC)


TAF: hiányzik

Meteorológiai megfigyelések és előrejelzések több, mint 4000 repülőtéren (METAR és TAF jelentéseket).

A térképen piros és sárga pontok jelzik az elérhető meteorológiai állomásokat.

Mozgassa az egeret a pont fölött, hogy megjelenjen az állomás neve.

Azután kattintson az időjárási megfigyelések és előrejelzések megtekintéséhez.

A térkép megváltoztatása: kattintson a fekete keresztel jelölt zöld gombra ráközelítéshez, a vonallal jelölt zöld gombra távolításhoz, vagy a zöld nyilakra a szomszédos térképek eléréséhez.


METAR-TAF: